createdAt,value
2022-07-29T00:00:03.738Z,0.90
2022-07-29T00:03:26.679Z,0.80
2022-07-29T00:06:29.564Z,0.80
2022-07-29T00:09:33.269Z,0.90
2022-07-29T00:12:45.003Z,0.90
2022-07-29T00:15:47.876Z,1.00
2022-07-29T00:18:50.745Z,1.10
2022-07-29T00:21:53.828Z,1.10
2022-07-29T00:24:56.795Z,0.80
2022-07-29T00:27:59.868Z,1.20
2022-07-29T00:31:03.096Z,0.70
2022-07-29T00:34:07.651Z,0.90
2022-07-29T00:37:10.674Z,1.30
2022-07-29T00:40:13.903Z,1.40
2022-07-29T00:43:18.410Z,1.50
2022-07-29T00:46:21.235Z,1.70
2022-07-29T00:49:24.294Z,1.60
2022-07-29T00:52:27.943Z,1.60
2022-07-29T00:55:31.533Z,1.50
2022-07-29T00:58:36.624Z,1.40
2022-07-29T01:01:40.406Z,1.50
2022-07-29T01:04:43.420Z,1.00
2022-07-29T01:07:54.872Z,0.90
2022-07-29T01:10:58.308Z,1.00
2022-07-29T01:14:02.417Z,0.80
2022-07-29T01:17:13.884Z,0.80
2022-07-29T01:20:42.177Z,0.90
2022-07-29T01:23:52.625Z,1.20
2022-07-29T01:27:03.986Z,0.90
2022-07-29T01:30:07.670Z,1.00
2022-07-29T01:33:36.740Z,0.90
2022-07-29T01:36:55.576Z,1.00
2022-07-29T01:40:03.162Z,0.80
2022-07-29T01:43:22.390Z,0.80
2022-07-29T01:46:34.036Z,1.00
2022-07-29T01:49:40.966Z,1.00
2022-07-29T01:52:51.173Z,1.20
2022-07-29T01:55:54.952Z,1.00
2022-07-29T01:59:05.671Z,0.90
2022-07-29T02:02:11.172Z,0.60
2022-07-29T02:05:17.351Z,1.20
2022-07-29T02:08:22.143Z,1.00
2022-07-29T02:11:25.372Z,1.00
2022-07-29T02:14:32.846Z,0.90
2022-07-29T02:18:06.110Z,1.10
2022-07-29T02:21:15.085Z,1.20
2022-07-29T02:24:20.147Z,1.20
2022-07-29T02:27:24.852Z,1.00
2022-07-29T02:30:29.971Z,1.10
2022-07-29T02:33:34.074Z,1.00
2022-07-29T02:36:38.375Z,1.10
2022-07-29T02:39:45.834Z,1.00
2022-07-29T02:45:56.173Z,1.20
2022-07-29T02:49:20.383Z,1.10
2022-07-29T02:52:32.944Z,0.90
2022-07-29T02:55:46.725Z,1.10
2022-07-29T02:58:56.746Z,0.80
2022-07-29T03:02:01.863Z,1.10
2022-07-29T03:05:29.461Z,1.00
2022-07-29T03:08:33.597Z,1.10
2022-07-29T03:11:42.310Z,1.00
2022-07-29T03:14:54.333Z,1.30
2022-07-29T03:17:59.161Z,1.10
2022-07-29T03:21:02.432Z,1.20
2022-07-29T03:24:10.046Z,1.50
2022-07-29T03:27:14.217Z,1.10
2022-07-29T03:30:21.679Z,1.30
2022-07-29T03:33:25.129Z,1.10
2022-07-29T03:36:28.248Z,1.50
2022-07-29T03:40:02.945Z,1.40
2022-07-29T03:43:08.477Z,1.70
2022-07-29T03:47:08.652Z,1.10
2022-07-29T03:50:15.518Z,1.40
2022-07-29T03:53:19.315Z,1.10
2022-07-29T03:56:24.742Z,1.70
2022-07-29T03:59:28.943Z,1.40
2022-07-29T04:02:33.664Z,1.40
2022-07-29T04:05:36.642Z,1.00
2022-07-29T04:09:45.514Z,1.10
2022-07-29T04:12:48.847Z,1.40
2022-07-29T04:15:52.375Z,1.70
2022-07-29T04:18:55.499Z,1.60
2022-07-29T04:22:00.784Z,1.30
2022-07-29T04:25:04.700Z,2.00
2022-07-29T04:28:08.936Z,2.00
2022-07-29T04:31:13.362Z,1.60
2022-07-29T04:34:16.487Z,1.70
2022-07-29T04:37:19.998Z,1.90
2022-07-29T04:40:23.379Z,1.40
2022-07-29T04:43:27.375Z,1.50
2022-07-29T04:46:30.894Z,1.60
2022-07-29T04:49:33.838Z,1.50
2022-07-29T04:52:37.879Z,1.40
2022-07-29T04:55:48.482Z,2.00
2022-07-29T04:58:52.522Z,1.50
2022-07-29T05:01:56.415Z,1.30
2022-07-29T05:05:02.884Z,1.40
2022-07-29T05:08:36.198Z,1.20
2022-07-29T05:11:40.712Z,1.20
2022-07-29T05:14:46.985Z,1.40
2022-07-29T05:18:11.241Z,1.00
2022-07-29T05:21:22.860Z,1.20
2022-07-29T05:24:33.789Z,1.50
2022-07-29T05:27:38.370Z,1.00
2022-07-29T05:30:44.545Z,1.00
2022-07-29T05:33:48.495Z,1.20
2022-07-29T05:36:54.766Z,1.30
2022-07-29T05:40:02.355Z,1.40
2022-07-29T05:43:11.456Z,1.30
2022-07-29T05:46:18.253Z,1.40
2022-07-29T05:49:26.772Z,1.20
2022-07-29T05:52:30.900Z,1.70
2022-07-29T05:55:35.975Z,1.40
2022-07-29T05:58:52.984Z,1.60
2022-07-29T06:02:01.472Z,1.50
2022-07-29T06:05:17.969Z,1.40
2022-07-29T06:08:28.004Z,1.60
2022-07-29T06:11:31.510Z,1.60
2022-07-29T06:14:34.589Z,1.30
2022-07-29T06:17:37.554Z,1.60
2022-07-29T06:21:00.378Z,2.00
2022-07-29T06:24:03.664Z,1.60
2022-07-29T06:27:06.783Z,1.70
2022-07-29T06:30:10.325Z,1.80
2022-07-29T06:33:18.147Z,1.70
2022-07-29T06:36:20.921Z,1.60
2022-07-29T06:39:25.990Z,1.90
2022-07-29T06:42:28.972Z,1.60
2022-07-29T06:45:35.824Z,1.70
2022-07-29T06:48:41.953Z,1.90
2022-07-29T06:51:47.803Z,2.10
2022-07-29T06:54:50.787Z,1.70
2022-07-29T06:57:53.751Z,1.70
2022-07-29T07:00:58.334Z,2.00
2022-07-29T07:04:01.331Z,1.60
2022-07-29T07:07:04.525Z,1.80
2022-07-29T07:10:09.121Z,1.80
2022-07-29T07:13:12.499Z,1.90
2022-07-29T07:16:15.840Z,1.60
2022-07-29T07:19:20.389Z,1.90
2022-07-29T07:22:23.463Z,1.60
2022-07-29T07:25:26.739Z,1.90
2022-07-29T07:28:30.474Z,1.90
2022-07-29T07:31:34.261Z,2.10
2022-07-29T07:34:39.190Z,1.80
2022-07-29T07:37:42.415Z,2.00
2022-07-29T07:40:47.641Z,2.00
2022-07-29T07:43:50.713Z,1.80
2022-07-29T07:46:54.658Z,1.70
2022-07-29T07:49:58.124Z,1.60
2022-07-29T07:53:03.313Z,1.90
2022-07-29T07:56:12.265Z,1.60
2022-07-29T07:59:15.753Z,1.80
2022-07-29T08:02:18.887Z,1.40
2022-07-29T08:05:22.169Z,1.60
2022-07-29T08:08:25.152Z,1.90
2022-07-29T08:11:29.578Z,1.50
2022-07-29T08:14:38.661Z,1.80
2022-07-29T08:17:42.851Z,1.80
2022-07-29T08:20:46.337Z,1.70
2022-07-29T08:24:00.673Z,1.70
2022-07-29T08:27:12.934Z,1.70
2022-07-29T08:30:29.229Z,1.20
2022-07-29T08:33:32.200Z,1.40
2022-07-29T08:36:39.463Z,1.40
2022-07-29T08:39:42.653Z,1.70
2022-07-29T08:42:45.723Z,1.20
2022-07-29T08:45:51.808Z,1.50
2022-07-29T08:48:56.630Z,1.10
2022-07-29T08:52:00.900Z,0.90
2022-07-29T08:55:05.610Z,1.50
2022-07-29T08:58:09.013Z,1.50
2022-07-29T09:01:22.062Z,1.30
2022-07-29T09:04:28.462Z,1.10
2022-07-29T09:07:34.705Z,1.20
2022-07-29T09:10:38.063Z,1.50
2022-07-29T09:13:41.540Z,1.20
2022-07-29T09:17:02.967Z,1.10
2022-07-29T09:20:15.571Z,1.30
2022-07-29T09:23:23.300Z,1.20
2022-07-29T09:26:32.316Z,1.30
2022-07-29T09:29:36.444Z,1.10
2022-07-29T09:32:59.854Z,0.90
2022-07-29T09:36:08.511Z,1.00
2022-07-29T09:39:12.352Z,1.60
2022-07-29T09:42:29.592Z,1.50
2022-07-29T09:45:34.759Z,0.90
2022-07-29T09:48:37.769Z,0.90
2022-07-29T09:51:41.530Z,1.10
2022-07-29T09:54:46.045Z,1.20
2022-07-29T09:57:49.008Z,1.20
2022-07-29T10:00:53.565Z,1.20
2022-07-29T10:03:56.797Z,0.90
2022-07-29T10:07:04.620Z,1.30
2022-07-29T10:10:08.790Z,1.30
2022-07-29T10:13:16.163Z,1.20
2022-07-29T10:16:20.111Z,1.00
2022-07-29T10:19:24.779Z,1.20
2022-07-29T10:22:52.046Z,1.10
2022-07-29T10:25:51.683Z,1.10
2022-07-29T10:28:54.654Z,1.00
2022-07-29T10:32:16.350Z,1.10
2022-07-29T10:35:56.061Z,0.90
2022-07-29T10:39:22.287Z,1.10
2022-07-29T10:42:33.258Z,1.10
2022-07-29T10:45:38.034Z,1.00
2022-07-29T10:49:17.233Z,1.10
2022-07-29T10:52:26.644Z,1.20
2022-07-29T10:55:43.177Z,1.00
2022-07-29T10:59:22.907Z,1.00
2022-07-29T11:02:42.210Z,0.90
2022-07-29T11:05:59.480Z,0.80
2022-07-29T11:09:34.915Z,1.00
2022-07-29T11:12:48.103Z,1.30
2022-07-29T11:15:56.032Z,1.10
2022-07-29T11:19:14.533Z,0.90
2022-07-29T11:22:46.060Z,1.00
2022-07-29T11:26:23.070Z,0.90
2022-07-29T11:29:27.081Z,0.80
2022-07-29T11:32:39.306Z,0.80
2022-07-29T11:35:42.542Z,1.00
2022-07-29T11:39:43.641Z,0.90
2022-07-29T11:42:51.995Z,0.90
2022-07-29T11:45:55.419Z,1.10
2022-07-29T11:48:59.781Z,0.80
2022-07-29T11:52:04.111Z,0.80
2022-07-29T11:55:10.247Z,0.70
2022-07-29T11:58:16.683Z,0.90
2022-07-29T12:01:22.558Z,1.00
2022-07-29T12:04:25.943Z,0.60
2022-07-29T12:07:34.973Z,0.70
2022-07-29T12:10:39.408Z,1.00
2022-07-29T12:13:42.430Z,0.70
2022-07-29T12:16:45.540Z,0.70
2022-07-29T12:19:48.995Z,0.60
2022-07-29T12:22:55.705Z,0.80
2022-07-29T12:25:59.681Z,0.60
2022-07-29T12:29:03.543Z,0.70
2022-07-29T12:32:15.029Z,0.80
2022-07-29T12:35:23.500Z,1.00
2022-07-29T12:38:27.234Z,0.80
2022-07-29T12:41:31.086Z,0.60
2022-07-29T12:44:51.235Z,0.60
2022-07-29T12:47:54.682Z,0.60
2022-07-29T12:51:00.677Z,0.80
2022-07-29T12:54:05.496Z,0.90
2022-07-29T12:57:08.564Z,0.50
2022-07-29T13:00:25.177Z,0.70
2022-07-29T13:03:28.525Z,0.50
2022-07-29T13:06:46.023Z,0.70
2022-07-29T13:09:54.045Z,0.60
2022-07-29T13:13:02.924Z,0.60
2022-07-29T13:16:08.931Z,0.70
2022-07-29T13:19:13.371Z,0.80
2022-07-29T13:22:18.841Z,0.70
2022-07-29T13:25:27.551Z,0.80
2022-07-29T13:28:30.475Z,0.70
2022-07-29T13:31:33.654Z,0.60
2022-07-29T13:34:36.623Z,0.60
2022-07-29T13:37:39.819Z,0.70
2022-07-29T13:40:43.085Z,0.70
2022-07-29T13:43:46.056Z,0.70
2022-07-29T13:46:52.915Z,0.70
2022-07-29T13:49:56.446Z,0.70
2022-07-29T13:52:59.676Z,0.60
2022-07-29T13:56:02.648Z,0.70
2022-07-29T13:59:05.630Z,0.70
2022-07-29T14:02:10.072Z,0.70
2022-07-29T14:05:13.192Z,0.50
2022-07-29T14:08:16.280Z,0.60
2022-07-29T14:11:19.149Z,0.50
2022-07-29T14:14:22.430Z,0.40
2022-07-29T14:17:25.473Z,0.70
2022-07-29T14:20:31.039Z,0.50
2022-07-29T14:23:34.009Z,0.70
2022-07-29T14:26:37.412Z,0.70
2022-07-29T14:29:40.470Z,0.60
2022-07-29T14:32:43.446Z,0.50
2022-07-29T14:35:48.967Z,0.60
2022-07-29T14:38:52.051Z,0.70
2022-07-29T14:42:01.814Z,0.70
2022-07-29T14:45:10.227Z,0.70
2022-07-29T14:48:13.245Z,0.60
2022-07-29T14:51:16.526Z,0.70
2022-07-29T14:54:19.905Z,0.70
2022-07-29T14:57:23.082Z,0.80
2022-07-29T15:00:26.974Z,0.80
2022-07-29T15:03:29.975Z,0.70
2022-07-29T15:06:37.731Z,0.80
2022-07-29T15:09:49.478Z,0.80
2022-07-29T15:12:53.605Z,0.60
2022-07-29T15:16:00.082Z,0.60
2022-07-29T15:19:04.844Z,0.70
2022-07-29T15:22:15.907Z,0.60
2022-07-29T15:25:19.114Z,0.90
2022-07-29T15:28:28.844Z,0.60
2022-07-29T15:31:38.257Z,0.60
2022-07-29T15:34:42.035Z,0.60
2022-07-29T15:37:49.626Z,0.60
2022-07-29T15:40:56.069Z,0.60
2022-07-29T15:44:04.318Z,0.50
2022-07-29T15:47:08.359Z,0.60
2022-07-29T15:50:16.448Z,0.60
2022-07-29T15:53:19.847Z,0.60
2022-07-29T15:56:25.769Z,0.50
2022-07-29T15:59:29.357Z,0.70
2022-07-29T16:02:35.237Z,0.70
2022-07-29T16:05:39.083Z,1.10
2022-07-29T16:08:42.463Z,0.80
2022-07-29T16:11:46.901Z,0.80
2022-07-29T16:14:51.463Z,0.80
2022-07-29T16:17:54.964Z,0.70
2022-07-29T16:20:58.827Z,0.70
2022-07-29T16:24:02.235Z,0.90
2022-07-29T16:27:05.625Z,0.80
2022-07-29T16:30:12.204Z,0.80
2022-07-29T16:33:15.248Z,0.70
2022-07-29T16:36:19.666Z,0.70
2022-07-29T16:39:23.137Z,0.70
2022-07-29T16:42:45.669Z,0.80
2022-07-29T16:45:51.004Z,0.60
2022-07-29T16:48:56.850Z,0.90
2022-07-29T16:52:06.776Z,0.90
2022-07-29T16:55:09.925Z,0.80
2022-07-29T16:58:12.901Z,1.00
2022-07-29T17:01:17.632Z,0.80
2022-07-29T17:04:32.569Z,0.80
2022-07-29T17:07:42.604Z,0.90
2022-07-29T17:10:46.339Z,0.80
2022-07-29T17:13:50.181Z,0.70
2022-07-29T17:17:04.941Z,1.10
2022-07-29T17:20:18.188Z,0.80
2022-07-29T17:23:21.415Z,0.90
2022-07-29T17:26:28.173Z,0.80
2022-07-29T17:29:35.746Z,1.00
2022-07-29T17:32:45.154Z,0.90
2022-07-29T17:36:07.061Z,0.70
2022-07-29T17:39:13.557Z,0.70
2022-07-29T17:42:16.859Z,0.70
2022-07-29T17:45:22.016Z,0.80
2022-07-29T17:48:25.195Z,0.70
2022-07-29T17:51:32.787Z,0.80
2022-07-29T17:54:39.577Z,0.80
2022-07-29T17:57:43.546Z,0.90
2022-07-29T18:04:00.155Z,0.70
2022-07-29T18:07:06.769Z,0.70
2022-07-29T18:10:15.678Z,0.80
2022-07-29T18:13:29.397Z,0.90
2022-07-29T18:16:35.375Z,0.90
2022-07-29T18:19:41.477Z,0.80
2022-07-29T18:22:49.880Z,0.70
2022-07-29T18:25:56.743Z,0.90
2022-07-29T18:29:02.782Z,0.90
2022-07-29T18:32:06.473Z,0.90
2022-07-29T18:35:10.623Z,0.70
2022-07-29T18:38:14.354Z,0.80
2022-07-29T18:41:17.642Z,0.90
2022-07-29T18:44:25.830Z,0.80
2022-07-29T18:47:32.273Z,0.70
2022-07-29T18:50:36.503Z,0.80
2022-07-29T18:53:39.460Z,0.80
2022-07-29T18:56:42.687Z,0.60
2022-07-29T18:59:45.908Z,0.90
2022-07-29T19:02:49.024Z,0.80
2022-07-29T19:05:52.160Z,0.90
2022-07-29T19:08:55.541Z,0.80
2022-07-29T19:12:01.969Z,0.80
2022-07-29T19:15:08.420Z,0.60
2022-07-29T19:18:13.567Z,0.80
2022-07-29T19:21:16.664Z,0.70
2022-07-29T19:24:20.333Z,0.70
2022-07-29T19:27:24.048Z,0.70
2022-07-29T19:30:28.531Z,0.60
2022-07-29T19:33:33.100Z,0.70
2022-07-29T19:36:37.236Z,0.90
2022-07-29T19:39:42.876Z,0.70
2022-07-29T19:42:46.047Z,0.90
2022-07-29T19:45:50.402Z,0.80
2022-07-29T19:48:53.991Z,0.80
2022-07-29T19:51:57.016Z,0.80
2022-07-29T19:55:05.292Z,0.80
2022-07-29T19:58:10.426Z,0.90
2022-07-29T20:01:13.913Z,0.80
2022-07-29T20:04:19.911Z,1.10
2022-07-29T20:07:22.930Z,0.90
2022-07-29T20:10:26.603Z,1.00
2022-07-29T20:13:31.921Z,0.90
2022-07-29T20:16:35.316Z,0.80
2022-07-29T20:19:38.238Z,1.00
2022-07-29T20:22:44.646Z,0.80
2022-07-29T20:25:48.592Z,0.70
2022-07-29T20:28:51.617Z,0.80
2022-07-29T20:31:56.721Z,0.80
2022-07-29T20:35:02.385Z,0.70
2022-07-29T20:38:05.683Z,0.70
2022-07-29T20:41:09.112Z,0.70
2022-07-29T20:44:12.007Z,0.80
2022-07-29T20:47:17.785Z,1.10
2022-07-29T20:50:23.744Z,0.80
2022-07-29T20:53:27.915Z,1.00
2022-07-29T20:56:31.606Z,0.60
2022-07-29T20:59:35.989Z,0.80
2022-07-29T21:02:39.314Z,0.90
2022-07-29T21:05:45.457Z,1.00
2022-07-29T21:08:48.475Z,0.80
2022-07-29T21:11:53.698Z,0.80
2022-07-29T21:14:59.315Z,0.90
2022-07-29T21:18:05.891Z,1.10
2022-07-29T21:21:08.962Z,1.10
2022-07-29T21:24:12.243Z,0.90
2022-07-29T21:27:38.415Z,1.00
2022-07-29T21:30:41.825Z,1.00
2022-07-29T21:33:46.892Z,1.00
2022-07-29T21:36:51.347Z,0.80
2022-07-29T21:39:54.524Z,0.90
2022-07-29T21:42:57.395Z,0.70
2022-07-29T21:46:01.168Z,0.80
2022-07-29T21:49:04.640Z,1.00
2022-07-29T21:52:10.557Z,0.80
2022-07-29T21:55:14.707Z,1.00
2022-07-29T21:58:26.419Z,0.80
2022-07-29T22:01:38.969Z,1.00
2022-07-29T22:04:45.486Z,0.80
2022-07-29T22:07:55.357Z,0.90
2022-07-29T22:11:12.741Z,0.80
2022-07-29T22:14:20.532Z,0.90
2022-07-29T22:17:31.010Z,0.60
2022-07-29T22:20:47.035Z,0.60
2022-07-29T22:23:50.338Z,0.90
2022-07-29T22:26:53.097Z,0.70
2022-07-29T22:29:57.097Z,0.70
2022-07-29T22:32:59.967Z,0.60
2022-07-29T22:36:02.990Z,0.60
2022-07-29T22:39:06.217Z,0.90
2022-07-29T22:42:09.289Z,0.80
2022-07-29T22:45:12.368Z,0.70
2022-07-29T22:48:16.564Z,1.10
2022-07-29T22:51:19.437Z,0.70
2022-07-29T22:54:22.410Z,0.80
2022-07-29T22:57:26.095Z,0.80
2022-07-29T23:00:29.271Z,0.70
2022-07-29T23:03:32.172Z,0.70
2022-07-29T23:06:35.013Z,0.80
2022-07-29T23:09:38.091Z,0.70
2022-07-29T23:12:42.493Z,1.00
2022-07-29T23:15:46.594Z,0.60
2022-07-29T23:18:49.564Z,0.60
2022-07-29T23:21:54.994Z,1.10
2022-07-29T23:24:57.860Z,0.80
2022-07-29T23:28:01.044Z,0.70
2022-07-29T23:31:03.974Z,0.60
2022-07-29T23:34:06.897Z,0.70
2022-07-29T23:37:09.851Z,0.60
2022-07-29T23:40:14.785Z,0.90
2022-07-29T23:43:18.049Z,0.70
2022-07-29T23:46:23.680Z,0.80
2022-07-29T23:49:28.223Z,0.80
2022-07-29T23:52:31.105Z,0.80
2022-07-29T23:55:36.958Z,0.90
2022-07-29T23:58:42.017Z,1.10
